Terminal Aerodrome Forecast
Issued by NWS

Home | Current Version | Previous Version | Text Only | Print | Product List | Glossary On
Versions: 1 2 3 4 5 6 7 8 9 10 11 12 13 14 15 16 17 18 19 20 21 22 23 24 25 26
000
FTUS43 KGRB 191739
TAFMTW
TAF
KMTW 191739Z 1918/2018 25006KT P6SM VCSH BKN015
      TEMPO 1918/1921 6SM -SHRA SCT015 BKN025
     FM192100 24008KT P6SM VCSH SCT015 BKN025
     FM200400 30003KT 3SM BR SCT008 BKN025
     FM200700 00000KT 3/4SM BR BKN008
     FM201500 32005KT 3SM BR BKN008=

USA.gov is the U.S. government's official web portal to all federal, state and local government web resources and services.